Alliance, North Carolina
Current Conditions -  °F | °C
As of 12:54 AM on Sunday 21 Dec 2014 (Local Time) from KEWN Reporting Station
Broken Clouds Broken Clouds  
Wind Chill: 32°   Ceiling: 7000
Heat Index: 37°   Visibility: 10mi
Dew Point: 33°   Wind: 6mph
Humidity: 86%   Direction: 40°NE
Pressure: 30.27"   Gusts: NA
Location:  35.14°N, 76.8°W
Report Text: KEWN 210554Z AUTO 04005KT 10SM BKN070 03/01 A3027 RMK AO2 SLP250 T00280006 10056 20011 58006
Loading
Personal Weather Stations






























Interactive Weather Map New forecast layout! Learn more

10-Day Weather Forecast

Advertisements
Track Severe Weather on mobile